sensor_id;sensor_type;location;lat;lon;timestamp;P1;durP1;ratioP1;P2;durP2;ratioP2
9720;SDS011;4899;42.644;23.366;2023-12-04T00:01:43;6.67;;;5.30;;
9720;SDS011;4899;42.644;23.366;2023-12-04T00:04:08;6.80;;;5.80;;
9720;SDS011;4899;42.644;23.366;2023-12-04T00:06:33;6.20;;;5.57;;
9720;SDS011;4899;42.644;23.366;2023-12-04T00:08:59;5.53;;;5.00;;
9720;SDS011;4899;42.644;23.366;2023-12-04T00:11:24;6.37;;;4.53;;
9720;SDS011;4899;42.644;23.366;2023-12-04T00:13:49;6.07;;;5.17;;
9720;SDS011;4899;42.644;23.366;2023-12-04T00:16:14;4.80;;;4.17;;
9720;SDS011;4899;42.644;23.366;2023-12-04T00:18:40;5.37;;;4.83;;
9720;SDS011;4899;42.644;23.366;2023-12-04T00:21:05;6.83;;;5.00;;
9720;SDS011;4899;42.644;23.366;2023-12-04T00:23:31;6.63;;;4.70;;
9720;SDS011;4899;42.644;23.366;2023-12-04T00:25:56;6.97;;;5.10;;
9720;SDS011;4899;42.644;23.366;2023-12-04T00:28:21;7.50;;;6.13;;
9720;SDS011;4899;42.644;23.366;2023-12-04T00:30:46;6.07;;;5.47;;
9720;SDS011;4899;42.644;23.366;2023-12-04T00:33:12;8.10;;;5.47;;
9720;SDS011;4899;42.644;23.366;2023-12-04T00:35:37;5.30;;;4.77;;
9720;SDS011;4899;42.644;23.366;2023-12-04T00:38:02;4.77;;;4.17;;
9720;SDS011;4899;42.644;23.366;2023-12-04T00:40:28;5.83;;;4.73;;
9720;SDS011;4899;42.644;23.366;2023-12-04T00:42:53;5.03;;;4.47;;
9720;SDS011;4899;42.644;23.366;2023-12-04T00:45:18;5.57;;;4.57;;
9720;SDS011;4899;42.644;23.366;2023-12-04T00:47:44;6.00;;;4.90;;
9720;SDS011;4899;42.644;23.366;2023-12-04T00:50:10;6.60;;;4.83;;
9720;SDS011;4899;42.644;23.366;2023-12-04T00:52:36;5.80;;;5.20;;
9720;SDS011;4899;42.644;23.366;2023-12-04T00:55:01;6.43;;;5.27;;
9720;SDS011;4899;42.644;23.366;2023-12-04T00:57:26;7.40;;;5.67;;
9720;SDS011;4899;42.644;23.366;2023-12-04T00:59:52;7.87;;;5.10;;
9720;SDS011;4899;42.644;23.366;2023-12-04T01:02:17;5.87;;;5.20;;
9720;SDS011;4899;42.644;23.366;2023-12-04T01:04:42;6.50;;;5.60;;
9720;SDS011;4899;42.644;23.366;2023-12-04T01:07:07;6.40;;;5.00;;
9720;SDS011;4899;42.644;23.366;2023-12-04T01:09:36;7.10;;;5.53;;
9720;SDS011;4899;42.644;23.366;2023-12-04T01:12:01;5.87;;;5.27;;
9720;SDS011;4899;42.644;23.366;2023-12-04T01:14:27;7.43;;;5.50;;
9720;SDS011;4899;42.644;23.366;2023-12-04T01:16:53;6.67;;;5.40;;
9720;SDS011;4899;42.644;23.366;2023-12-04T01:19:18;7.23;;;5.30;;
9720;SDS011;4899;42.644;23.366;2023-12-04T01:21:43;7.00;;;5.60;;
9720;SDS011;4899;42.644;23.366;2023-12-04T01:24:08;6.53;;;5.20;;
9720;SDS011;4899;42.644;23.366;2023-12-04T01:26:34;6.40;;;5.17;;
9720;SDS011;4899;42.644;23.366;2023-12-04T01:28:59;6.50;;;5.37;;
9720;SDS011;4899;42.644;23.366;2023-12-04T01:31:24;7.30;;;5.13;;
9720;SDS011;4899;42.644;23.366;2023-12-04T01:33:50;5.17;;;4.60;;
9720;SDS011;4899;42.644;23.366;2023-12-04T01:36:15;6.50;;;5.80;;
9720;SDS011;4899;42.644;23.366;2023-12-04T01:38:40;6.13;;;5.20;;
9720;SDS011;4899;42.644;23.366;2023-12-04T01:41:06;7.10;;;6.00;;
9720;SDS011;4899;42.644;23.366;2023-12-04T01:43:31;5.70;;;4.73;;
9720;SDS011;4899;42.644;23.366;2023-12-04T01:45:56;6.43;;;5.57;;
9720;SDS011;4899;42.644;23.366;2023-12-04T01:48:22;6.40;;;5.33;;
9720;SDS011;4899;42.644;23.366;2023-12-04T01:50:48;5.87;;;5.23;;
9720;SDS011;4899;42.644;23.366;2023-12-04T01:53:14;5.73;;;4.83;;
9720;SDS011;4899;42.644;23.366;2023-12-04T01:55:39;5.00;;;4.50;;
9720;SDS011;4899;42.644;23.366;2023-12-04T01:58:06;6.43;;;5.37;;
9720;SDS011;4899;42.644;23.366;2023-12-04T02:00:31;6.83;;;4.67;;
9720;SDS011;4899;42.644;23.366;2023-12-04T02:02:57;6.13;;;5.10;;
9720;SDS011;4899;42.644;23.366;2023-12-04T02:05:23;6.80;;;5.53;;
9720;SDS011;4899;42.644;23.366;2023-12-04T02:07:48;6.93;;;5.33;;
9720;SDS011;4899;42.644;23.366;2023-12-04T02:10:13;6.13;;;5.13;;
9720;SDS011;4899;42.644;23.366;2023-12-04T02:12:39;6.57;;;5.87;;
9720;SDS011;4899;42.644;23.366;2023-12-04T02:15:04;6.43;;;5.50;;
9720;SDS011;4899;42.644;23.366;2023-12-04T02:17:30;7.67;;;5.60;;
9720;SDS011;4899;42.644;23.366;2023-12-04T02:19:57;7.40;;;5.80;;
9720;SDS011;4899;42.644;23.366;2023-12-04T02:22:22;6.60;;;5.33;;
9720;SDS011;4899;42.644;23.366;2023-12-04T02:24:48;6.27;;;5.47;;
9720;SDS011;4899;42.644;23.366;2023-12-04T02:27:23;5.10;;;4.60;;
9720;SDS011;4899;42.644;23.366;2023-12-04T02:29:56;6.20;;;5.23;;
9720;SDS011;4899;42.644;23.366;2023-12-04T02:32:23;6.73;;;5.77;;
9720;SDS011;4899;42.644;23.366;2023-12-04T02:34:48;6.17;;;5.20;;
9720;SDS011;4899;42.644;23.366;2023-12-04T02:37:14;8.47;;;5.10;;
9720;SDS011;4899;42.644;23.366;2023-12-04T02:39:41;8.17;;;5.03;;
9720;SDS011;4899;42.644;23.366;2023-12-04T02:42:07;5.87;;;5.27;;
9720;SDS011;4899;42.644;23.366;2023-12-04T02:44:32;5.80;;;4.47;;
9720;SDS011;4899;42.644;23.366;2023-12-04T02:46:58;6.43;;;5.43;;
9720;SDS011;4899;42.644;23.366;2023-12-04T02:49:23;5.60;;;4.73;;
9720;SDS011;4899;42.644;23.366;2023-12-04T02:51:48;7.30;;;5.40;;
9720;SDS011;4899;42.644;23.366;2023-12-04T02:54:13;6.50;;;5.50;;
9720;SDS011;4899;42.644;23.366;2023-12-04T02:56:39;5.80;;;5.10;;
9720;SDS011;4899;42.644;23.366;2023-12-04T02:59:04;6.43;;;5.77;;
9720;SDS011;4899;42.644;23.366;2023-12-04T03:01:29;6.97;;;5.20;;
9720;SDS011;4899;42.644;23.366;2023-12-04T03:03:55;5.80;;;5.27;;
9720;SDS011;4899;42.644;23.366;2023-12-04T03:06:20;7.17;;;5.60;;
9720;SDS011;4899;42.644;23.366;2023-12-04T03:08:45;6.90;;;5.47;;
9720;SDS011;4899;42.644;23.366;2023-12-04T03:11:11;6.70;;;5.27;;
9720;SDS011;4899;42.644;23.366;2023-12-04T03:13:36;6.17;;;5.53;;
9720;SDS011;4899;42.644;23.366;2023-12-04T03:16:01;5.97;;;5.13;;
9720;SDS011;4899;42.644;23.366;2023-12-04T03:18:27;5.63;;;4.80;;
9720;SDS011;4899;42.644;23.366;2023-12-04T03:20:53;9.57;;;5.60;;
9720;SDS011;4899;42.644;23.366;2023-12-04T03:23:19;5.90;;;4.77;;
9720;SDS011;4899;42.644;23.366;2023-12-04T03:25:44;6.03;;;4.87;;
9720;SDS011;4899;42.644;23.366;2023-12-04T03:28:09;6.33;;;5.47;;
9720;SDS011;4899;42.644;23.366;2023-12-04T03:30:35;7.00;;;5.53;;
9720;SDS011;4899;42.644;23.366;2023-12-04T03:33:00;5.70;;;4.77;;
9720;SDS011;4899;42.644;23.366;2023-12-04T03:35:26;6.07;;;5.43;;
9720;SDS011;4899;42.644;23.366;2023-12-04T03:37:51;5.23;;;4.60;;
9720;SDS011;4899;42.644;23.366;2023-12-04T03:40:16;5.87;;;5.00;;
9720;SDS011;4899;42.644;23.366;2023-12-04T03:42:42;5.60;;;4.80;;
9720;SDS011;4899;42.644;23.366;2023-12-04T03:45:07;8.93;;;5.70;;
9720;SDS011;4899;42.644;23.366;2023-12-04T03:47:33;5.53;;;4.83;;
9720;SDS011;4899;42.644;23.366;2023-12-04T03:49:58;5.93;;;5.00;;
9720;SDS011;4899;42.644;23.366;2023-12-04T03:52:23;4.43;;;3.93;;
9720;SDS011;4899;42.644;23.366;2023-12-04T03:54:48;6.17;;;5.57;;
9720;SDS011;4899;42.644;23.366;2023-12-04T03:57:14;7.30;;;5.83;;
9720;SDS011;4899;42.644;23.366;2023-12-04T03:59:39;6.90;;;6.20;;
9720;SDS011;4899;42.644;23.366;2023-12-04T04:02:04;5.67;;;4.57;;
9720;SDS011;4899;42.644;23.366;2023-12-04T04:04:30;7.43;;;5.47;;
9720;SDS011;4899;42.644;23.366;2023-12-04T04:06:56;5.60;;;5.10;;
9720;SDS011;4899;42.644;23.366;2023-12-04T04:09:21;6.47;;;5.50;;
9720;SDS011;4899;42.644;23.366;2023-12-04T04:11:47;6.60;;;4.47;;
9720;SDS011;4899;42.644;23.366;2023-12-04T04:14:12;5.83;;;5.23;;
9720;SDS011;4899;42.644;23.366;2023-12-04T04:16:37;6.27;;;5.13;;
9720;SDS011;4899;42.644;23.366;2023-12-04T04:19:03;6.90;;;5.53;;
9720;SDS011;4899;42.644;23.366;2023-12-04T04:21:28;7.47;;;5.57;;
9720;SDS011;4899;42.644;23.366;2023-12-04T04:23:54;9.83;;;6.53;;
9720;SDS011;4899;42.644;23.366;2023-12-04T04:26:19;4.80;;;4.23;;
9720;SDS011;4899;42.644;23.366;2023-12-04T04:28:44;7.07;;;4.90;;
9720;SDS011;4899;42.644;23.366;2023-12-04T04:31:10;6.00;;;5.30;;
9720;SDS011;4899;42.644;23.366;2023-12-04T04:33:35;6.83;;;5.33;;
9720;SDS011;4899;42.644;23.366;2023-12-04T04:36:00;5.37;;;4.63;;
9720;SDS011;4899;42.644;23.366;2023-12-04T04:38:26;6.73;;;5.87;;
9720;SDS011;4899;42.644;23.366;2023-12-04T04:40:51;7.27;;;5.50;;
9720;SDS011;4899;42.644;23.366;2023-12-04T04:43:17;6.20;;;5.17;;
9720;SDS011;4899;42.644;23.366;2023-12-04T04:45:43;5.53;;;4.60;;
9720;SDS011;4899;42.644;23.366;2023-12-04T04:48:08;5.97;;;5.37;;
9720;SDS011;4899;42.644;23.366;2023-12-04T04:50:33;7.57;;;5.40;;
9720;SDS011;4899;42.644;23.366;2023-12-04T04:52:59;5.80;;;4.83;;
9720;SDS011;4899;42.644;23.366;2023-12-04T04:55:24;6.07;;;5.40;;
9720;SDS011;4899;42.644;23.366;2023-12-04T04:57:49;5.57;;;4.73;;
9720;SDS011;4899;42.644;23.366;2023-12-04T05:00:15;7.73;;;5.20;;
9720;SDS011;4899;42.644;23.366;2023-12-04T05:02:41;6.87;;;5.00;;
9720;SDS011;4899;42.644;23.366;2023-12-04T05:05:06;5.27;;;4.60;;
9720;SDS011;4899;42.644;23.366;2023-12-04T05:07:32;5.43;;;4.70;;
9720;SDS011;4899;42.644;23.366;2023-12-04T05:09:57;6.20;;;4.80;;
9720;SDS011;4899;42.644;23.366;2023-12-04T05:12:22;5.43;;;4.80;;
9720;SDS011;4899;42.644;23.366;2023-12-04T05:14:47;7.13;;;4.90;;
9720;SDS011;4899;42.644;23.366;2023-12-04T05:17:13;6.93;;;5.20;;
9720;SDS011;4899;42.644;23.366;2023-12-04T05:19:38;5.00;;;4.40;;
9720;SDS011;4899;42.644;23.366;2023-12-04T05:22:03;6.70;;;5.10;;
9720;SDS011;4899;42.644;23.366;2023-12-04T05:24:29;5.30;;;4.80;;
9720;SDS011;4899;42.644;23.366;2023-12-04T05:26:54;6.00;;;5.40;;
9720;SDS011;4899;42.644;23.366;2023-12-04T05:29:19;6.60;;;4.90;;
9720;SDS011;4899;42.644;23.366;2023-12-04T05:31:45;9.20;;;5.20;;
9720;SDS011;4899;42.644;23.366;2023-12-04T05:34:10;6.03;;;5.10;;
9720;SDS011;4899;42.644;23.366;2023-12-04T05:36:35;6.50;;;5.17;;
9720;SDS011;4899;42.644;23.366;2023-12-04T05:39:00;8.17;;;5.83;;
9720;SDS011;4899;42.644;23.366;2023-12-04T05:41:26;5.60;;;5.00;;
9720;SDS011;4899;42.644;23.366;2023-12-04T05:43:51;6.20;;;5.33;;
9720;SDS011;4899;42.644;23.366;2023-12-04T05:46:16;6.33;;;5.57;;
9720;SDS011;4899;42.644;23.366;2023-12-04T05:48:42;8.13;;;5.40;;
9720;SDS011;4899;42.644;23.366;2023-12-04T05:51:07;6.73;;;5.73;;
9720;SDS011;4899;42.644;23.366;2023-12-04T05:53:32;6.63;;;5.90;;
9720;SDS011;4899;42.644;23.366;2023-12-04T05:55:58;8.13;;;6.17;;
9720;SDS011;4899;42.644;23.366;2023-12-04T05:58:23;7.63;;;6.83;;
9720;SDS011;4899;42.644;23.366;2023-12-04T06:00:48;10.97;;;7.23;;
9720;SDS011;4899;42.644;23.366;2023-12-04T06:03:14;7.60;;;5.93;;
9720;SDS011;4899;42.644;23.366;2023-12-04T06:05:39;7.23;;;6.13;;
9720;SDS011;4899;42.644;23.366;2023-12-04T06:08:04;9.60;;;7.00;;
9720;SDS011;4899;42.644;23.366;2023-12-04T06:10:29;8.77;;;6.93;;
9720;SDS011;4899;42.644;23.366;2023-12-04T06:12:55;9.07;;;6.43;;
9720;SDS011;4899;42.644;23.366;2023-12-04T06:15:20;6.77;;;5.77;;
9720;SDS011;4899;42.644;23.366;2023-12-04T06:17:45;7.63;;;5.93;;
9720;SDS011;4899;42.644;23.366;2023-12-04T06:20:11;8.13;;;6.07;;
9720;SDS011;4899;42.644;23.366;2023-12-04T06:22:36;10.23;;;7.20;;
9720;SDS011;4899;42.644;23.366;2023-12-04T06:25:02;9.17;;;7.00;;
9720;SDS011;4899;42.644;23.366;2023-12-04T06:27:28;11.37;;;8.20;;
9720;SDS011;4899;42.644;23.366;2023-12-04T06:29:53;12.43;;;7.30;;
9720;SDS011;4899;42.644;23.366;2023-12-04T06:32:19;8.90;;;6.27;;
9720;SDS011;4899;42.644;23.366;2023-12-04T06:34:44;12.83;;;9.33;;
9720;SDS011;4899;42.644;23.366;2023-12-04T06:37:10;10.10;;;7.77;;
9720;SDS011;4899;42.644;23.366;2023-12-04T06:39:36;9.90;;;7.10;;
9720;SDS011;4899;42.644;23.366;2023-12-04T06:42:02;7.17;;;6.20;;
9720;SDS011;4899;42.644;23.366;2023-12-04T06:44:28;9.40;;;6.97;;
9720;SDS011;4899;42.644;23.366;2023-12-04T06:46:53;6.97;;;5.87;;
9720;SDS011;4899;42.644;23.366;2023-12-04T06:49:19;6.83;;;6.13;;
9720;SDS011;4899;42.644;23.366;2023-12-04T06:51:44;7.50;;;5.77;;
9720;SDS011;4899;42.644;23.366;2023-12-04T06:54:10;8.63;;;6.20;;
9720;SDS011;4899;42.644;23.366;2023-12-04T06:56:37;7.30;;;6.27;;
9720;SDS011;4899;42.644;23.366;2023-12-04T06:59:02;8.07;;;6.40;;
9720;SDS011;4899;42.644;23.366;2023-12-04T07:01:27;7.57;;;5.20;;
9720;SDS011;4899;42.644;23.366;2023-12-04T07:03:52;9.43;;;6.90;;
9720;SDS011;4899;42.644;23.366;2023-12-04T07:06:18;11.97;;;7.97;;
9720;SDS011;4899;42.644;23.366;2023-12-04T07:08:44;6.67;;;5.97;;
9720;SDS011;4899;42.644;23.366;2023-12-04T07:11:09;8.03;;;6.13;;
9720;SDS011;4899;42.644;23.366;2023-12-04T07:13:34;8.27;;;6.70;;
9720;SDS011;4899;42.644;23.366;2023-12-04T07:16:00;8.40;;;6.60;;
9720;SDS011;4899;42.644;23.366;2023-12-04T07:18:25;8.53;;;6.73;;
9720;SDS011;4899;42.644;23.366;2023-12-04T07:20:51;9.17;;;7.10;;
9720;SDS011;4899;42.644;23.366;2023-12-04T07:23:16;8.63;;;6.63;;
9720;SDS011;4899;42.644;23.366;2023-12-04T07:25:42;10.03;;;7.37;;
9720;SDS011;4899;42.644;23.366;2023-12-04T07:28:07;8.17;;;6.13;;
9720;SDS011;4899;42.644;23.366;2023-12-04T07:30:33;9.27;;;6.83;;
9720;SDS011;4899;42.644;23.366;2023-12-04T07:32:58;7.73;;;6.23;;
9720;SDS011;4899;42.644;23.366;2023-12-04T07:35:25;8.67;;;6.80;;
9720;SDS011;4899;42.644;23.366;2023-12-04T07:37:50;7.70;;;6.40;;
9720;SDS011;4899;42.644;23.366;2023-12-04T07:40:16;7.03;;;5.23;;
9720;SDS011;4899;42.644;23.366;2023-12-04T07:42:41;8.57;;;6.73;;
9720;SDS011;4899;42.644;23.366;2023-12-04T07:45:08;9.13;;;6.70;;
9720;SDS011;4899;42.644;23.366;2023-12-04T07:47:33;7.40;;;5.50;;
9720;SDS011;4899;42.644;23.366;2023-12-04T07:49:59;6.47;;;5.30;;
9720;SDS011;4899;42.644;23.366;2023-12-04T07:52:25;6.83;;;5.80;;
9720;SDS011;4899;42.644;23.366;2023-12-04T07:54:50;7.13;;;5.87;;
9720;SDS011;4899;42.644;23.366;2023-12-04T07:57:15;7.53;;;5.57;;
9720;SDS011;4899;42.644;23.366;2023-12-04T07:59:41;6.73;;;5.63;;
9720;SDS011;4899;42.644;23.366;2023-12-04T08:02:07;6.77;;;5.10;;
9720;SDS011;4899;42.644;23.366;2023-12-04T08:04:32;6.90;;;5.77;;
9720;SDS011;4899;42.644;23.366;2023-12-04T08:06:58;6.17;;;5.27;;
9720;SDS011;4899;42.644;23.366;2023-12-04T08:09:23;6.13;;;4.67;;
9720;SDS011;4899;42.644;23.366;2023-12-04T08:11:48;6.47;;;4.97;;
9720;SDS011;4899;42.644;23.366;2023-12-04T08:14:14;6.87;;;5.20;;
9720;SDS011;4899;42.644;23.366;2023-12-04T08:16:41;5.50;;;4.70;;
9720;SDS011;4899;42.644;23.366;2023-12-04T08:19:06;7.90;;;5.83;;
9720;SDS011;4899;42.644;23.366;2023-12-04T08:21:31;5.47;;;4.90;;
9720;SDS011;4899;42.644;23.366;2023-12-04T08:23:57;7.07;;;5.57;;
9720;SDS011;4899;42.644;23.366;2023-12-04T08:26:23;6.03;;;4.90;;
9720;SDS011;4899;42.644;23.366;2023-12-04T08:28:49;7.73;;;5.00;;
9720;SDS011;4899;42.644;23.366;2023-12-04T08:31:15;5.83;;;4.33;;
9720;SDS011;4899;42.644;23.366;2023-12-04T08:33:40;5.10;;;4.60;;
9720;SDS011;4899;42.644;23.366;2023-12-04T08:36:06;5.73;;;4.10;;
9720;SDS011;4899;42.644;23.366;2023-12-04T08:38:32;6.87;;;3.93;;
9720;SDS011;4899;42.644;23.366;2023-12-04T08:40:57;5.47;;;3.77;;
9720;SDS011;4899;42.644;23.366;2023-12-04T08:43:22;5.77;;;4.20;;
9720;SDS011;4899;42.644;23.366;2023-12-04T08:45:49;4.20;;;3.80;;
9720;SDS011;4899;42.644;23.366;2023-12-04T08:48:14;4.40;;;4.00;;
9720;SDS011;4899;42.644;23.366;2023-12-04T08:50:40;5.23;;;4.47;;
9720;SDS011;4899;42.644;23.366;2023-12-04T08:53:05;6.17;;;4.60;;
9720;SDS011;4899;42.644;23.366;2023-12-04T08:55:30;6.40;;;4.27;;
9720;SDS011;4899;42.644;23.366;2023-12-04T08:57:56;4.90;;;4.07;;
9720;SDS011;4899;42.644;23.366;2023-12-04T09:00:21;4.73;;;4.20;;
9720;SDS011;4899;42.644;23.366;2023-12-04T09:02:47;5.97;;;4.43;;
9720;SDS011;4899;42.644;23.366;2023-12-04T09:05:13;5.10;;;4.27;;
9720;SDS011;4899;42.644;23.366;2023-12-04T09:07:38;5.33;;;4.13;;
9720;SDS011;4899;42.644;23.366;2023-12-04T09:10:03;5.23;;;4.67;;
9720;SDS011;4899;42.644;23.366;2023-12-04T09:12:29;4.97;;;4.27;;
9720;SDS011;4899;42.644;23.366;2023-12-04T09:14:54;5.83;;;3.90;;
9720;SDS011;4899;42.644;23.366;2023-12-04T09:17:19;4.07;;;3.67;;
9720;SDS011;4899;42.644;23.366;2023-12-04T09:19:45;5.67;;;4.57;;
9720;SDS011;4899;42.644;23.366;2023-12-04T09:22:11;9.60;;;4.10;;
9720;SDS011;4899;42.644;23.366;2023-12-04T09:24:36;5.17;;;4.47;;
9720;SDS011;4899;42.644;23.366;2023-12-04T09:27:01;5.30;;;4.23;;
9720;SDS011;4899;42.644;23.366;2023-12-04T09:29:26;5.10;;;4.10;;
9720;SDS011;4899;42.644;23.366;2023-12-04T09:31:52;4.97;;;4.47;;
9720;SDS011;4899;42.644;23.366;2023-12-04T09:34:18;5.17;;;4.67;;
9720;SDS011;4899;42.644;23.366;2023-12-04T09:36:45;4.40;;;3.97;;
9720;SDS011;4899;42.644;23.366;2023-12-04T09:39:10;5.60;;;4.73;;
9720;SDS011;4899;42.644;23.366;2023-12-04T09:41:36;4.80;;;4.30;;
9720;SDS011;4899;42.644;23.366;2023-12-04T09:44:02;3.87;;;3.47;;
9720;SDS011;4899;42.644;23.366;2023-12-04T09:46:27;4.77;;;4.27;;
9720;SDS011;4899;42.644;23.366;2023-12-04T09:48:53;5.10;;;4.40;;
9720;SDS011;4899;42.644;23.366;2023-12-04T09:51:19;4.37;;;3.97;;
9720;SDS011;4899;42.644;23.366;2023-12-04T09:53:46;5.00;;;4.07;;
9720;SDS011;4899;42.644;23.366;2023-12-04T09:56:12;5.83;;;4.70;;
9720;SDS011;4899;42.644;23.366;2023-12-04T09:58:39;4.97;;;4.07;;
9720;SDS011;4899;42.644;23.366;2023-12-04T10:01:05;5.20;;;4.10;;
9720;SDS011;4899;42.644;23.366;2023-12-04T10:03:31;5.20;;;4.27;;
9720;SDS011;4899;42.644;23.366;2023-12-04T10:05:57;4.43;;;3.77;;
9720;SDS011;4899;42.644;23.366;2023-12-04T10:08:23;5.10;;;4.13;;
9720;SDS011;4899;42.644;23.366;2023-12-04T10:10:48;4.93;;;4.23;;
9720;SDS011;4899;42.644;23.366;2023-12-04T10:13:13;5.67;;;4.00;;
9720;SDS011;4899;42.644;23.366;2023-12-04T10:15:48;5.03;;;4.50;;
9720;SDS011;4899;42.644;23.366;2023-12-04T10:18:32;5.03;;;3.83;;
9720;SDS011;4899;42.644;23.366;2023-12-04T10:20:57;4.10;;;3.70;;
9720;SDS011;4899;42.644;23.366;2023-12-04T10:23:23;4.97;;;4.40;;
9720;SDS011;4899;42.644;23.366;2023-12-04T10:26:00;3.70;;;3.40;;
9720;SDS011;4899;42.644;23.366;2023-12-04T10:28:26;5.17;;;4.40;;
9720;SDS011;4899;42.644;23.366;2023-12-04T10:30:52;10.00;;;4.43;;
9720;SDS011;4899;42.644;23.366;2023-12-04T10:33:18;4.73;;;4.33;;
9720;SDS011;4899;42.644;23.366;2023-12-04T10:35:43;5.20;;;4.70;;
9720;SDS011;4899;42.644;23.366;2023-12-04T10:38:09;5.20;;;4.70;;
9720;SDS011;4899;42.644;23.366;2023-12-04T10:40:35;6.73;;;4.27;;
9720;SDS011;4899;42.644;23.366;2023-12-04T10:43:10;3.93;;;3.53;;
9720;SDS011;4899;42.644;23.366;2023-12-04T10:45:39;6.53;;;4.63;;
9720;SDS011;4899;42.644;23.366;2023-12-04T10:48:05;6.43;;;4.37;;
9720;SDS011;4899;42.644;23.366;2023-12-04T10:50:40;4.83;;;4.23;;
9720;SDS011;4899;42.644;23.366;2023-12-04T10:53:10;5.23;;;4.43;;
9720;SDS011;4899;42.644;23.366;2023-12-04T10:55:36;6.17;;;5.17;;
9720;SDS011;4899;42.644;23.366;2023-12-04T10:58:02;5.47;;;4.17;;
9720;SDS011;4899;42.644;23.366;2023-12-04T11:00:30;6.53;;;3.73;;
9720;SDS011;4899;42.644;23.366;2023-12-04T11:02:57;5.23;;;4.50;;
9720;SDS011;4899;42.644;23.366;2023-12-04T11:05:24;4.97;;;4.30;;
9720;SDS011;4899;42.644;23.366;2023-12-04T11:07:52;4.33;;;3.93;;
9720;SDS011;4899;42.644;23.366;2023-12-04T11:10:20;4.80;;;4.30;;
9720;SDS011;4899;42.644;23.366;2023-12-04T11:12:46;6.00;;;4.27;;
9720;SDS011;4899;42.644;23.366;2023-12-04T11:15:14;5.30;;;4.47;;
9720;SDS011;4899;42.644;23.366;2023-12-04T11:17:42;4.77;;;4.27;;
9720;SDS011;4899;42.644;23.366;2023-12-04T11:20:10;4.87;;;4.37;;
9720;SDS011;4899;42.644;23.366;2023-12-04T11:22:36;5.40;;;4.77;;
9720;SDS011;4899;42.644;23.366;2023-12-04T11:25:04;5.67;;;4.77;;
9720;SDS011;4899;42.644;23.366;2023-12-04T11:27:30;4.70;;;4.23;;
9720;SDS011;4899;42.644;23.366;2023-12-04T11:29:57;5.27;;;4.57;;
9720;SDS011;4899;42.644;23.366;2023-12-04T11:32:24;6.10;;;4.80;;
9720;SDS011;4899;42.644;23.366;2023-12-04T11:34:50;5.67;;;4.77;;
9720;SDS011;4899;42.644;23.366;2023-12-04T11:37:17;9.07;;;5.30;;
9720;SDS011;4899;42.644;23.366;2023-12-04T11:39:42;5.90;;;5.00;;
9720;SDS011;4899;42.644;23.366;2023-12-04T11:42:07;6.00;;;4.73;;
9720;SDS011;4899;42.644;23.366;2023-12-04T11:44:34;6.13;;;4.50;;
9720;SDS011;4899;42.644;23.366;2023-12-04T11:47:04;6.70;;;4.70;;
9720;SDS011;4899;42.644;23.366;2023-12-04T11:49:30;4.83;;;4.37;;
9720;SDS011;4899;42.644;23.366;2023-12-04T11:52:00;6.30;;;4.73;;
9720;SDS011;4899;42.644;23.366;2023-12-04T11:54:27;5.47;;;4.70;;
9720;SDS011;4899;42.644;23.366;2023-12-04T11:56:56;5.40;;;4.90;;
9720;SDS011;4899;42.644;23.366;2023-12-04T11:59:21;4.70;;;4.30;;
9720;SDS011;4899;42.644;23.366;2023-12-04T12:01:49;4.93;;;4.43;;
9720;SDS011;4899;42.644;23.366;2023-12-04T12:04:15;5.87;;;4.27;;
9720;SDS011;4899;42.644;23.366;2023-12-04T12:06:42;4.83;;;4.43;;
9720;SDS011;4899;42.644;23.366;2023-12-04T12:09:07;5.30;;;4.37;;
9720;SDS011;4899;42.644;23.366;2023-12-04T12:11:33;6.97;;;5.03;;
9720;SDS011;4899;42.644;23.366;2023-12-04T12:13:59;5.03;;;4.53;;
9720;SDS011;4899;42.644;23.366;2023-12-04T12:16:24;5.47;;;4.97;;
9720;SDS011;4899;42.644;23.366;2023-12-04T12:18:50;6.83;;;5.20;;
9720;SDS011;4899;42.644;23.366;2023-12-04T12:21:16;5.37;;;4.87;;
9720;SDS011;4899;42.644;23.366;2023-12-04T12:23:41;8.23;;;5.27;;
9720;SDS011;4899;42.644;23.366;2023-12-04T12:26:07;5.43;;;4.93;;
9720;SDS011;4899;42.644;23.366;2023-12-04T12:28:34;5.73;;;4.97;;
9720;SDS011;4899;42.644;23.366;2023-12-04T12:31:03;7.77;;;5.97;;
9720;SDS011;4899;42.644;23.366;2023-12-04T12:33:29;6.27;;;5.67;;
9720;SDS011;4899;42.644;23.366;2023-12-04T12:35:55;5.90;;;5.33;;
9720;SDS011;4899;42.644;23.366;2023-12-04T12:38:20;7.00;;;6.40;;
9720;SDS011;4899;42.644;23.366;2023-12-04T12:40:45;6.70;;;5.40;;
9720;SDS011;4899;42.644;23.366;2023-12-04T12:43:11;6.20;;;5.60;;
9720;SDS011;4899;42.644;23.366;2023-12-04T12:45:39;7.43;;;6.73;;
9720;SDS011;4899;42.644;23.366;2023-12-04T12:48:05;8.60;;;6.73;;
9720;SDS011;4899;42.644;23.366;2023-12-04T12:50:31;7.60;;;6.80;;
9720;SDS011;4899;42.644;23.366;2023-12-04T12:52:56;9.37;;;8.40;;
9720;SDS011;4899;42.644;23.366;2023-12-04T12:55:25;9.73;;;8.73;;
9720;SDS011;4899;42.644;23.366;2023-12-04T12:57:52;8.23;;;6.90;;
9720;SDS011;4899;42.644;23.366;2023-12-04T13:00:17;8.17;;;7.33;;
9720;SDS011;4899;42.644;23.366;2023-12-04T13:02:44;9.20;;;7.50;;
9720;SDS011;4899;42.644;23.366;2023-12-04T13:05:09;8.77;;;7.93;;
9720;SDS011;4899;42.644;23.366;2023-12-04T13:07:35;9.43;;;7.83;;
9720;SDS011;4899;42.644;23.366;2023-12-04T13:10:00;9.27;;;8.33;;
9720;SDS011;4899;42.644;23.366;2023-12-04T13:12:26;8.23;;;7.43;;
9720;SDS011;4899;42.644;23.366;2023-12-04T13:14:51;7.87;;;7.23;;
9720;SDS011;4899;42.644;23.366;2023-12-04T13:17:16;8.33;;;7.53;;
9720;SDS011;4899;42.644;23.366;2023-12-04T13:19:42;8.80;;;7.90;;
9720;SDS011;4899;42.644;23.366;2023-12-04T13:22:07;10.60;;;7.97;;
9720;SDS011;4899;42.644;23.366;2023-12-04T13:24:33;8.80;;;8.00;;
9720;SDS011;4899;42.644;23.366;2023-12-04T13:26:58;10.67;;;8.13;;
9720;SDS011;4899;42.644;23.366;2023-12-04T13:29:23;9.70;;;8.90;;
9720;SDS011;4899;42.644;23.366;2023-12-04T13:31:49;11.10;;;10.10;;
9720;SDS011;4899;42.644;23.366;2023-12-04T13:34:18;12.07;;;9.93;;
9720;SDS011;4899;42.644;23.366;2023-12-04T13:36:43;14.93;;;11.63;;
9720;SDS011;4899;42.644;23.366;2023-12-04T13:39:09;14.40;;;12.87;;
9720;SDS011;4899;42.644;23.366;2023-12-04T13:42:01;14.37;;;12.63;;
9720;SDS011;4899;42.644;23.366;2023-12-04T13:44:45;12.73;;;11.30;;
9720;SDS011;4899;42.644;23.366;2023-12-04T13:47:10;13.70;;;11.73;;
9720;SDS011;4899;42.644;23.366;2023-12-04T13:49:37;16.23;;;12.60;;
9720;SDS011;4899;42.644;23.366;2023-12-04T13:52:02;14.23;;;11.93;;
9720;SDS011;4899;42.644;23.366;2023-12-04T13:54:32;15.83;;;12.10;;
9720;SDS011;4899;42.644;23.366;2023-12-04T13:57:09;12.47;;;11.27;;
9720;SDS011;4899;42.644;23.366;2023-12-04T13:59:38;15.17;;;12.07;;
9720;SDS011;4899;42.644;23.366;2023-12-04T14:02:04;14.83;;;11.37;;
9720;SDS011;4899;42.644;23.366;2023-12-04T14:04:35;12.47;;;11.17;;
9720;SDS011;4899;42.644;23.366;2023-12-04T14:07:00;14.00;;;10.87;;
9720;SDS011;4899;42.644;23.366;2023-12-04T14:09:26;12.93;;;10.70;;
9720;SDS011;4899;42.644;23.366;2023-12-04T14:11:52;14.87;;;10.27;;
9720;SDS011;4899;42.644;23.366;2023-12-04T14:14:17;11.40;;;10.10;;
9720;SDS011;4899;42.644;23.366;2023-12-04T14:16:43;14.17;;;10.47;;
9720;SDS011;4899;42.644;23.366;2023-12-04T14:19:11;13.40;;;10.60;;
9720;SDS011;4899;42.644;23.366;2023-12-04T14:21:37;11.73;;;9.97;;
9720;SDS011;4899;42.644;23.366;2023-12-04T14:24:02;14.57;;;10.27;;
9720;SDS011;4899;42.644;23.366;2023-12-04T14:26:28;15.33;;;10.30;;
9720;SDS011;4899;42.644;23.366;2023-12-04T14:28:53;13.10;;;9.97;;
9720;SDS011;4899;42.644;23.366;2023-12-04T14:31:18;13.03;;;9.60;;
9720;SDS011;4899;42.644;23.366;2023-12-04T14:33:44;14.90;;;10.57;;
9720;SDS011;4899;42.644;23.366;2023-12-04T14:36:10;19.37;;;12.87;;
9720;SDS011;4899;42.644;23.366;2023-12-04T14:38:36;14.27;;;10.67;;
9720;SDS011;4899;42.644;23.366;2023-12-04T14:41:03;12.13;;;9.83;;
9720;SDS011;4899;42.644;23.366;2023-12-04T14:43:29;11.87;;;10.07;;
9720;SDS011;4899;42.644;23.366;2023-12-04T14:45:54;17.60;;;10.60;;
9720;SDS011;4899;42.644;23.366;2023-12-04T14:48:20;16.03;;;9.47;;
9720;SDS011;4899;42.644;23.366;2023-12-04T14:50:45;12.07;;;9.73;;